createdAt,value
2022-12-19T00:00:09.749Z,82
2022-12-19T00:05:09.452Z,81
2022-12-19T00:10:11.036Z,82
2022-12-19T00:15:12.822Z,82
2022-12-19T00:20:15.316Z,82
2022-12-19T00:25:16.106Z,82
2022-12-19T00:30:17.501Z,81
2022-12-19T00:35:19.721Z,81
2022-12-19T00:40:21.215Z,81
2022-12-19T00:45:22.993Z,82
2022-12-19T00:50:24.485Z,82
2022-12-19T00:55:25.577Z,81
2022-12-19T01:00:27.522Z,80
2022-12-19T01:05:29.584Z,81
2022-12-19T01:10:31.292Z,81
2022-12-19T01:15:32.576Z,80
2022-12-19T01:20:34.095Z,81
2022-12-19T01:25:35.725Z,82
2022-12-19T01:30:37.732Z,82
2022-12-19T01:35:38.943Z,81
2022-12-19T01:40:40.169Z,82
2022-12-19T01:45:45.784Z,82
2022-12-19T02:00:45.794Z,82
2022-12-19T02:25:54.826Z,82
2022-12-19T02:30:56.209Z,82
2022-12-19T02:40:59.654Z,82
2022-12-19T02:46:01.096Z,81
2022-12-19T02:51:02.514Z,81
2022-12-19T02:56:05.067Z,81
2022-12-19T03:01:06.392Z,81
2022-12-19T03:11:09.812Z,81
2022-12-19T03:16:11.274Z,81
2022-12-19T03:21:13.207Z,82
2022-12-19T03:26:14.600Z,82
2022-12-19T03:31:16.703Z,82
2022-12-19T03:36:18.340Z,82
2022-12-19T03:41:20.195Z,82
2022-12-19T03:46:21.496Z,82
2022-12-19T03:51:22.923Z,82
2022-12-19T03:56:24.376Z,82
2022-12-19T04:01:26.706Z,82
2022-12-19T04:06:28.801Z,82
2022-12-19T04:11:30.493Z,82
2022-12-19T04:16:32.452Z,82
2022-12-19T04:21:33.909Z,83
2022-12-19T04:26:35.315Z,83
2022-12-19T04:31:37.363Z,83
2022-12-19T04:36:38.735Z,83
2022-12-19T04:41:40.839Z,83
2022-12-19T04:46:42.451Z,83
2022-12-19T04:51:44.296Z,83
2022-12-19T04:56:45.894Z,84
2022-12-19T05:01:47.422Z,83
2022-12-19T05:06:49.166Z,83
2022-12-19T05:11:50.306Z,83
2022-12-19T05:16:55.978Z,84
2022-12-19T05:21:53.956Z,84
2022-12-19T05:26:55.367Z,83
2022-12-19T05:31:56.947Z,83
2022-12-19T05:36:59.227Z,83
2022-12-19T05:42:00.633Z,83
2022-12-19T05:47:02.043Z,82
2022-12-19T05:52:03.330Z,83
2022-12-19T05:57:05.356Z,82
2022-12-19T06:02:06.916Z,83
2022-12-19T06:07:08.329Z,83
2022-12-19T06:12:10.220Z,83
2022-12-19T06:17:12.396Z,83
2022-12-19T06:22:14.092Z,83
2022-12-19T06:27:15.905Z,84
2022-12-19T06:32:17.214Z,84
2022-12-19T06:37:18.948Z,84
2022-12-19T06:42:20.894Z,84
2022-12-19T06:47:22.363Z,84
2022-12-19T06:52:24.582Z,84
2022-12-19T06:57:25.878Z,84
2022-12-19T07:02:27.883Z,84
2022-12-19T07:07:29.417Z,84
2022-12-19T07:12:31.136Z,84
2022-12-19T07:17:32.593Z,84
2022-12-19T07:22:34.231Z,84
2022-12-19T07:27:36.329Z,84
2022-12-19T07:32:37.622Z,85
2022-12-19T07:37:39.237Z,84
2022-12-19T07:42:40.644Z,85
2022-12-19T07:47:42.304Z,84
2022-12-19T07:52:44.285Z,84
2022-12-19T07:57:45.712Z,83
2022-12-19T08:02:47.098Z,84
2022-12-19T08:07:48.865Z,86
2022-12-19T08:12:50.100Z,83
2022-12-19T08:17:51.687Z,81
2022-12-19T08:22:53.922Z,83
2022-12-19T08:27:55.358Z,80
2022-12-19T08:32:56.601Z,81
2022-12-19T08:37:58.773Z,78
2022-12-19T08:43:00.829Z,77
2022-12-19T08:48:02.987Z,75
2022-12-19T08:53:04.313Z,75
2022-12-19T08:58:05.782Z,74
2022-12-19T09:03:07.588Z,74
2022-12-19T09:08:09.233Z,74
2022-12-19T09:13:10.496Z,74
2022-12-19T09:18:12.036Z,74
2022-12-19T09:23:13.897Z,72
2022-12-19T09:28:27.171Z,72
2022-12-19T09:33:16.676Z,73
2022-12-19T09:38:18.599Z,73
2022-12-19T09:43:20.195Z,72
2022-12-19T09:48:22.813Z,73
2022-12-19T09:53:24.328Z,73
2022-12-19T09:58:25.466Z,73
2022-12-19T10:03:27.516Z,74
2022-12-19T10:08:29.180Z,74
2022-12-19T10:13:30.777Z,74
2022-12-19T10:18:32.267Z,75
2022-12-19T10:23:34.326Z,72
2022-12-19T10:28:36.001Z,73
2022-12-19T10:33:37.619Z,73
2022-12-19T10:38:40.253Z,75
2022-12-19T10:43:44.334Z,76
2022-12-19T10:48:43.299Z,75
2022-12-19T10:53:45.235Z,76
2022-12-19T10:58:47.088Z,76
2022-12-19T11:03:48.998Z,77
2022-12-19T11:08:51.068Z,76
2022-12-19T11:16:33.756Z,75
2022-12-19T11:22:09.295Z,76
2022-12-19T11:30:23.652Z,74
2022-12-19T11:30:24.207Z,75
2022-12-19T11:33:59.703Z,74
2022-12-19T11:39:00.998Z,74
2022-12-19T11:44:02.892Z,73
2022-12-19T11:49:04.806Z,73
2022-12-19T11:54:06.208Z,72
2022-12-19T11:59:07.913Z,72
2022-12-19T12:04:10.197Z,72
2022-12-19T12:09:33.413Z,71
2022-12-19T12:18:43.646Z,70
2022-12-19T12:24:21.356Z,70
2022-12-19T12:25:00.130Z,71
2022-12-19T12:32:07.561Z,71
2022-12-19T12:35:25.175Z,71
2022-12-19T12:39:28.139Z,72
2022-12-19T12:44:26.986Z,71
2022-12-19T12:49:25.084Z,72
2022-12-19T12:54:26.519Z,73
2022-12-19T12:59:28.496Z,73
2022-12-19T13:04:30.587Z,74
2022-12-19T13:09:32.224Z,75
2022-12-19T13:14:33.824Z,76
2022-12-19T13:19:36.044Z,76
2022-12-19T13:24:37.497Z,76
2022-12-19T13:29:38.950Z,76
2022-12-19T13:34:42.333Z,77
2022-12-19T13:39:53.091Z,77
2022-12-19T13:44:45.066Z,76
2022-12-19T13:49:46.601Z,76
2022-12-19T13:54:48.708Z,77
2022-12-19T13:59:59.927Z,78
2022-12-19T14:04:52.898Z,79
2022-12-19T14:11:25.757Z,79
2022-12-19T14:14:58.116Z,78
2022-12-19T14:20:12.324Z,79
2022-12-19T14:25:07.083Z,79
2022-12-19T14:30:29.624Z,79
2022-12-19T14:36:05.482Z,79
2022-12-19T14:40:04.163Z,79
2022-12-19T14:49:13.305Z,79
2022-12-19T14:53:52.813Z,80
2022-12-19T14:55:43.271Z,80
2022-12-19T15:00:34.970Z,80
2022-12-19T15:05:12.184Z,80
2022-12-19T15:11:02.092Z,80
2022-12-19T15:15:15.646Z,81
2022-12-19T15:20:17.310Z,81
2022-12-19T15:25:36.439Z,81
2022-12-19T15:30:20.291Z,82
2022-12-19T15:35:22.415Z,82
2022-12-19T15:40:24.204Z,82
2022-12-19T15:45:32.058Z,82
2022-12-19T15:50:33.456Z,83
2022-12-19T15:55:35.153Z,83
2022-12-19T16:00:36.953Z,83
2022-12-19T16:05:38.499Z,83
2022-12-19T16:10:40.415Z,83
2022-12-19T16:15:42.533Z,83
2022-12-19T16:20:44.062Z,83
2022-12-19T16:50:55.444Z,84
2022-12-19T17:00:58.689Z,84
2022-12-19T17:06:00.000Z,84
2022-12-19T17:16:03.163Z,85
2022-12-19T17:21:04.592Z,86
2022-12-19T17:31:07.507Z,85
2022-12-19T17:36:09.330Z,82
2022-12-19T17:46:12.747Z,81
2022-12-19T17:51:14.372Z,82
2022-12-19T17:56:16.266Z,82
2022-12-19T18:01:17.992Z,82
2022-12-19T18:06:19.558Z,82
2022-12-19T18:11:20.752Z,83
2022-12-19T18:16:22.517Z,83
2022-12-19T18:21:23.975Z,83
2022-12-19T18:26:25.889Z,83
2022-12-19T18:31:27.563Z,83
2022-12-19T18:36:28.765Z,83
2022-12-19T18:41:30.428Z,83
2022-12-19T18:46:32.430Z,84
2022-12-19T18:51:34.224Z,84
2022-12-19T18:56:35.823Z,84
2022-12-19T19:01:38.012Z,84
2022-12-19T19:06:43.457Z,84
2022-12-19T19:11:41.835Z,84
2022-12-19T19:16:43.741Z,84
2022-12-19T19:21:45.555Z,84
2022-12-19T19:26:47.635Z,84
2022-12-19T19:31:48.922Z,84
2022-12-19T19:36:50.717Z,84
2022-12-19T19:41:52.263Z,84
2022-12-19T19:46:53.665Z,84
2022-12-19T19:52:02.120Z,83
2022-12-19T19:56:57.503Z,84
2022-12-19T20:01:58.937Z,84
2022-12-19T20:07:00.793Z,84
2022-12-19T20:12:02.787Z,84
2022-12-19T20:17:03.951Z,84
2022-12-19T20:22:05.548Z,84
2022-12-19T20:27:07.098Z,84
2022-12-19T20:32:08.773Z,85
2022-12-19T20:37:10.769Z,85
2022-12-19T20:42:12.377Z,85
2022-12-19T20:47:13.733Z,85
2022-12-19T20:52:15.275Z,86
2022-12-19T20:57:16.537Z,85
2022-12-19T21:02:17.916Z,85
2022-12-19T21:07:19.165Z,86
2022-12-19T21:12:20.574Z,86
2022-12-19T21:17:22.468Z,85
2022-12-19T21:22:24.721Z,85
2022-12-19T21:27:25.919Z,86
2022-12-19T21:32:27.306Z,85
2022-12-19T21:37:28.808Z,86
2022-12-19T21:42:30.184Z,86
2022-12-19T21:47:31.823Z,86
2022-12-19T21:52:33.310Z,87
2022-12-19T21:57:34.685Z,87
2022-12-19T22:02:36.615Z,87
2022-12-19T22:07:38.543Z,87
2022-12-19T22:12:40.376Z,87
2022-12-19T22:17:42.410Z,87
2022-12-19T22:22:43.975Z,87
2022-12-19T22:27:45.841Z,87
2022-12-19T22:32:47.523Z,87
2022-12-19T22:37:49.079Z,87
2022-12-19T22:42:50.565Z,87
2022-12-19T22:47:52.194Z,88
2022-12-19T22:52:53.923Z,88
2022-12-19T22:57:56.167Z,87
2022-12-19T23:02:58.028Z,87
2022-12-19T23:07:59.320Z,88
2022-12-19T23:13:00.590Z,87
2022-12-19T23:18:02.359Z,86
2022-12-19T23:23:03.847Z,86
2022-12-19T23:28:05.680Z,85
2022-12-19T23:33:07.042Z,86
2022-12-19T23:38:09.098Z,85
2022-12-19T23:43:11.232Z,85
2022-12-19T23:48:13.035Z,86
2022-12-19T23:53:14.169Z,85
2022-12-19T23:58:20.820Z,85
